sensor_id;sensor_type;location;lat;lon;timestamp;P1;durP1;ratioP1;P2;durP2;ratioP2
58460;SDS011;45558;37.752;-97.822;2023-12-07T00:01:05;2.20;;;0.80;;
58460;SDS011;45558;37.752;-97.822;2023-12-07T00:03:30;3.97;;;1.30;;
58460;SDS011;45558;37.752;-97.822;2023-12-07T00:05:56;2.78;;;1.23;;
58460;SDS011;45558;37.752;-97.822;2023-12-07T00:08:22;3.67;;;1.05;;
58460;SDS011;45558;37.752;-97.822;2023-12-07T00:10:47;4.45;;;0.77;;
58460;SDS011;45558;37.752;-97.822;2023-12-07T00:13:13;3.15;;;0.80;;
58460;SDS011;45558;37.752;-97.822;2023-12-07T00:15:39;4.55;;;1.15;;
58460;SDS011;45558;37.752;-97.822;2023-12-07T00:18:04;3.53;;;1.20;;
58460;SDS011;45558;37.752;-97.822;2023-12-07T00:20:30;23.33;;;12.98;;
58460;SDS011;45558;37.752;-97.822;2023-12-07T00:22:56;21.25;;;7.45;;
58460;SDS011;45558;37.752;-97.822;2023-12-07T00:25:21;130.05;;;42.53;;
58460;SDS011;45558;37.752;-97.822;2023-12-07T00:27:47;54.65;;;18.33;;
58460;SDS011;45558;37.752;-97.822;2023-12-07T00:30:13;71.57;;;23.38;;
58460;SDS011;45558;37.752;-97.822;2023-12-07T00:32:39;56.13;;;20.75;;
58460;SDS011;45558;37.752;-97.822;2023-12-07T00:35:08;12.18;;;5.63;;
58460;SDS011;45558;37.752;-97.822;2023-12-07T00:37:37;31.48;;;12.27;;
58460;SDS011;45558;37.752;-97.822;2023-12-07T00:40:02;13.60;;;6.65;;
58460;SDS011;45558;37.752;-97.822;2023-12-07T00:42:29;18.13;;;9.43;;
58460;SDS011;45558;37.752;-97.822;2023-12-07T00:44:55;6.72;;;4.80;;
58460;SDS011;45558;37.752;-97.822;2023-12-07T00:47:21;7.57;;;4.82;;
58460;SDS011;45558;37.752;-97.822;2023-12-07T00:49:47;20.02;;;7.80;;
58460;SDS011;45558;37.752;-97.822;2023-12-07T00:52:13;8.65;;;4.07;;
58460;SDS011;45558;37.752;-97.822;2023-12-07T00:54:38;17.67;;;6.90;;
58460;SDS011;45558;37.752;-97.822;2023-12-07T00:57:04;9.98;;;3.97;;
58460;SDS011;45558;37.752;-97.822;2023-12-07T00:59:30;21.02;;;7.80;;
58460;SDS011;45558;37.752;-97.822;2023-12-07T01:02:02;6.03;;;2.65;;
58460;SDS011;45558;37.752;-97.822;2023-12-07T01:04:28;8.57;;;3.15;;
58460;SDS011;45558;37.752;-97.822;2023-12-07T01:06:54;7.00;;;2.33;;
58460;SDS011;45558;37.752;-97.822;2023-12-07T01:09:21;13.30;;;5.95;;
58460;SDS011;45558;37.752;-97.822;2023-12-07T01:11:47;9.90;;;4.55;;
58460;SDS011;45558;37.752;-97.822;2023-12-07T01:14:13;13.68;;;6.07;;
58460;SDS011;45558;37.752;-97.822;2023-12-07T01:16:39;3.38;;;2.03;;
58460;SDS011;45558;37.752;-97.822;2023-12-07T01:19:04;4.93;;;2.03;;
58460;SDS011;45558;37.752;-97.822;2023-12-07T01:21:32;3.38;;;1.73;;
58460;SDS011;45558;37.752;-97.822;2023-12-07T01:23:58;5.75;;;2.30;;
58460;SDS011;45558;37.752;-97.822;2023-12-07T01:26:23;3.35;;;2.45;;
58460;SDS011;45558;37.752;-97.822;2023-12-07T01:28:49;4.68;;;3.10;;
58460;SDS011;45558;37.752;-97.822;2023-12-07T01:31:15;5.68;;;2.38;;
58460;SDS011;45558;37.752;-97.822;2023-12-07T01:33:42;4.30;;;2.80;;
58460;SDS011;45558;37.752;-97.822;2023-12-07T01:36:10;4.88;;;3.55;;
58460;SDS011;45558;37.752;-97.822;2023-12-07T01:38:37;5.70;;;2.70;;
58460;SDS011;45558;37.752;-97.822;2023-12-07T01:41:02;5.82;;;3.47;;
58460;SDS011;45558;37.752;-97.822;2023-12-07T01:43:29;3.92;;;2.47;;
58460;SDS011;45558;37.752;-97.822;2023-12-07T01:45:55;7.80;;;3.45;;
58460;SDS011;45558;37.752;-97.822;2023-12-07T01:48:23;7.68;;;3.53;;
58460;SDS011;45558;37.752;-97.822;2023-12-07T01:50:51;6.65;;;3.97;;
58460;SDS011;45558;37.752;-97.822;2023-12-07T01:53:18;5.50;;;2.97;;
58460;SDS011;45558;37.752;-97.822;2023-12-07T01:55:44;12.82;;;4.18;;
58460;SDS011;45558;37.752;-97.822;2023-12-07T01:58:10;12.65;;;4.30;;
58460;SDS011;45558;37.752;-97.822;2023-12-07T02:00:36;7.03;;;4.32;;
58460;SDS011;45558;37.752;-97.822;2023-12-07T02:03:04;10.85;;;4.30;;
58460;SDS011;45558;37.752;-97.822;2023-12-07T02:05:30;14.60;;;5.50;;
58460;SDS011;45558;37.752;-97.822;2023-12-07T02:07:56;9.52;;;5.85;;
58460;SDS011;45558;37.752;-97.822;2023-12-07T02:10:22;15.25;;;5.13;;
58460;SDS011;45558;37.752;-97.822;2023-12-07T02:12:49;14.32;;;5.55;;
58460;SDS011;45558;37.752;-97.822;2023-12-07T02:15:14;18.25;;;5.57;;
58460;SDS011;45558;37.752;-97.822;2023-12-07T02:20:11;21.48;;;6.32;;
58460;SDS011;45558;37.752;-97.822;2023-12-07T02:22:42;20.88;;;6.28;;
58460;SDS011;45558;37.752;-97.822;2023-12-07T02:25:11;17.20;;;6.63;;
58460;SDS011;45558;37.752;-97.822;2023-12-07T02:27:39;28.73;;;6.43;;
58460;SDS011;45558;37.752;-97.822;2023-12-07T02:30:07;22.75;;;7.13;;
58460;SDS011;45558;37.752;-97.822;2023-12-07T02:32:34;29.55;;;7.53;;
58460;SDS011;45558;37.752;-97.822;2023-12-07T02:35:03;24.58;;;6.70;;
58460;SDS011;45558;37.752;-97.822;2023-12-07T02:37:32;28.77;;;7.78;;
58460;SDS011;45558;37.752;-97.822;2023-12-07T02:40:00;29.63;;;6.35;;
58460;SDS011;45558;37.752;-97.822;2023-12-07T02:42:26;25.40;;;8.75;;
58460;SDS011;45558;37.752;-97.822;2023-12-07T02:44:52;18.30;;;6.57;;
58460;SDS011;45558;37.752;-97.822;2023-12-07T02:47:18;33.97;;;7.75;;
58460;SDS011;45558;37.752;-97.822;2023-12-07T02:49:44;29.50;;;7.93;;
58460;SDS011;45558;37.752;-97.822;2023-12-07T02:52:10;34.97;;;7.32;;
58460;SDS011;45558;37.752;-97.822;2023-12-07T02:54:36;41.83;;;8.80;;
58460;SDS011;45558;37.752;-97.822;2023-12-07T02:57:01;32.97;;;8.18;;
58460;SDS011;45558;37.752;-97.822;2023-12-07T02:59:27;31.60;;;7.88;;
58460;SDS011;45558;37.752;-97.822;2023-12-07T03:01:53;41.50;;;9.00;;
58460;SDS011;45558;37.752;-97.822;2023-12-07T03:04:18;41.80;;;10.02;;
58460;SDS011;45558;37.752;-97.822;2023-12-07T03:06:44;38.47;;;8.82;;
58460;SDS011;45558;37.752;-97.822;2023-12-07T03:09:10;36.28;;;9.73;;
58460;SDS011;45558;37.752;-97.822;2023-12-07T03:11:35;45.80;;;9.38;;
58460;SDS011;45558;37.752;-97.822;2023-12-07T03:14:01;34.00;;;7.13;;
58460;SDS011;45558;37.752;-97.822;2023-12-07T03:16:27;31.05;;;7.45;;
58460;SDS011;45558;37.752;-97.822;2023-12-07T03:18:52;32.58;;;7.88;;
58460;SDS011;45558;37.752;-97.822;2023-12-07T03:21:18;25.13;;;6.40;;
58460;SDS011;45558;37.752;-97.822;2023-12-07T03:23:44;38.95;;;6.13;;
58460;SDS011;45558;37.752;-97.822;2023-12-07T03:26:10;35.45;;;7.50;;
58460;SDS011;45558;37.752;-97.822;2023-12-07T03:28:35;32.05;;;6.25;;
58460;SDS011;45558;37.752;-97.822;2023-12-07T03:31:02;28.85;;;5.68;;
58460;SDS011;45558;37.752;-97.822;2023-12-07T03:33:28;34.28;;;6.70;;
58460;SDS011;45558;37.752;-97.822;2023-12-07T03:35:54;38.95;;;5.90;;
58460;SDS011;45558;37.752;-97.822;2023-12-07T03:38:19;42.70;;;7.82;;
58460;SDS011;45558;37.752;-97.822;2023-12-07T03:40:46;40.35;;;7.32;;
58460;SDS011;45558;37.752;-97.822;2023-12-07T03:43:13;30.60;;;5.28;;
58460;SDS011;45558;37.752;-97.822;2023-12-07T03:45:38;39.28;;;6.20;;
58460;SDS011;45558;37.752;-97.822;2023-12-07T03:48:04;40.55;;;5.82;;
58460;SDS011;45558;37.752;-97.822;2023-12-07T03:50:30;34.53;;;8.13;;
58460;SDS011;45558;37.752;-97.822;2023-12-07T03:52:56;39.45;;;6.60;;
58460;SDS011;45558;37.752;-97.822;2023-12-07T03:55:22;43.15;;;5.75;;
58460;SDS011;45558;37.752;-97.822;2023-12-07T03:57:48;37.88;;;5.88;;
58460;SDS011;45558;37.752;-97.822;2023-12-07T04:00:13;34.00;;;6.72;;
58460;SDS011;45558;37.752;-97.822;2023-12-07T04:02:39;40.50;;;7.80;;
58460;SDS011;45558;37.752;-97.822;2023-12-07T04:05:05;46.17;;;7.03;;
58460;SDS011;45558;37.752;-97.822;2023-12-07T04:07:31;48.38;;;8.38;;
58460;SDS011;45558;37.752;-97.822;2023-12-07T04:09:57;52.88;;;6.32;;
58460;SDS011;45558;37.752;-97.822;2023-12-07T04:12:23;44.05;;;7.20;;
58460;SDS011;45558;37.752;-97.822;2023-12-07T04:14:51;44.33;;;6.93;;
58460;SDS011;45558;37.752;-97.822;2023-12-07T04:17:17;42.42;;;7.20;;
58460;SDS011;45558;37.752;-97.822;2023-12-07T04:19:43;38.22;;;6.10;;
58460;SDS011;45558;37.752;-97.822;2023-12-07T04:22:09;43.00;;;4.93;;
58460;SDS011;45558;37.752;-97.822;2023-12-07T04:24:34;37.08;;;5.63;;
58460;SDS011;45558;37.752;-97.822;2023-12-07T04:27:00;31.88;;;5.38;;
58460;SDS011;45558;37.752;-97.822;2023-12-07T04:29:26;28.95;;;5.15;;
58460;SDS011;45558;37.752;-97.822;2023-12-07T04:31:51;43.40;;;5.57;;
58460;SDS011;45558;37.752;-97.822;2023-12-07T04:34:17;37.28;;;5.20;;
58460;SDS011;45558;37.752;-97.822;2023-12-07T04:36:43;27.65;;;4.13;;
58460;SDS011;45558;37.752;-97.822;2023-12-07T04:42:30;37.58;;;6.63;;
58460;SDS011;45558;37.752;-97.822;2023-12-07T04:44:56;35.05;;;4.90;;
58460;SDS011;45558;37.752;-97.822;2023-12-07T04:47:21;39.50;;;5.00;;
58460;SDS011;45558;37.752;-97.822;2023-12-07T04:49:48;34.42;;;5.78;;
58460;SDS011;45558;37.752;-97.822;2023-12-07T04:52:14;37.63;;;3.97;;
58460;SDS011;45558;37.752;-97.822;2023-12-07T04:54:40;36.58;;;4.25;;
58460;SDS011;45558;37.752;-97.822;2023-12-07T04:57:07;33.50;;;4.47;;
58460;SDS011;45558;37.752;-97.822;2023-12-07T04:59:32;29.70;;;3.22;;
58460;SDS011;45558;37.752;-97.822;2023-12-07T05:01:58;37.92;;;4.80;;
58460;SDS011;45558;37.752;-97.822;2023-12-07T05:04:23;38.60;;;5.72;;
58460;SDS011;45558;37.752;-97.822;2023-12-07T05:06:49;29.67;;;4.88;;
58460;SDS011;45558;37.752;-97.822;2023-12-07T05:09:15;38.35;;;4.55;;
58460;SDS011;45558;37.752;-97.822;2023-12-07T05:11:40;34.60;;;4.45;;
58460;SDS011;45558;37.752;-97.822;2023-12-07T05:14:06;33.63;;;4.55;;
58460;SDS011;45558;37.752;-97.822;2023-12-07T05:16:32;36.42;;;4.05;;
58460;SDS011;45558;37.752;-97.822;2023-12-07T05:18:58;18.58;;;3.88;;
58460;SDS011;45558;37.752;-97.822;2023-12-07T05:21:23;35.50;;;3.97;;
58460;SDS011;45558;37.752;-97.822;2023-12-07T05:23:49;37.83;;;4.03;;
58460;SDS011;45558;37.752;-97.822;2023-12-07T05:26:16;39.17;;;4.55;;
58460;SDS011;45558;37.752;-97.822;2023-12-07T05:28:42;40.42;;;5.05;;
58460;SDS011;45558;37.752;-97.822;2023-12-07T05:31:09;40.22;;;4.97;;
58460;SDS011;45558;37.752;-97.822;2023-12-07T05:33:34;33.88;;;4.40;;
58460;SDS011;45558;37.752;-97.822;2023-12-07T05:36:00;37.40;;;4.07;;
58460;SDS011;45558;37.752;-97.822;2023-12-07T05:38:27;30.33;;;3.67;;
58460;SDS011;45558;37.752;-97.822;2023-12-07T05:40:53;47.25;;;4.95;;
58460;SDS011;45558;37.752;-97.822;2023-12-07T05:43:18;41.58;;;5.05;;
58460;SDS011;45558;37.752;-97.822;2023-12-07T05:45:44;37.88;;;5.28;;
58460;SDS011;45558;37.752;-97.822;2023-12-07T05:48:10;48.78;;;6.15;;
58460;SDS011;45558;37.752;-97.822;2023-12-07T05:50:36;41.67;;;4.97;;
58460;SDS011;45558;37.752;-97.822;2023-12-07T05:53:04;40.25;;;4.75;;
58460;SDS011;45558;37.752;-97.822;2023-12-07T05:55:31;38.35;;;3.85;;
58460;SDS011;45558;37.752;-97.822;2023-12-07T05:57:57;42.63;;;5.20;;
58460;SDS011;45558;37.752;-97.822;2023-12-07T06:00:22;40.70;;;4.43;;
58460;SDS011;45558;37.752;-97.822;2023-12-07T06:02:48;45.17;;;5.93;;
58460;SDS011;45558;37.752;-97.822;2023-12-07T06:05:14;44.65;;;6.80;;
58460;SDS011;45558;37.752;-97.822;2023-12-07T06:07:40;41.53;;;5.40;;
58460;SDS011;45558;37.752;-97.822;2023-12-07T06:10:06;56.47;;;6.15;;
58460;SDS011;45558;37.752;-97.822;2023-12-07T06:12:32;40.10;;;6.25;;
58460;SDS011;45558;37.752;-97.822;2023-12-07T06:14:58;43.28;;;6.40;;
58460;SDS011;45558;37.752;-97.822;2023-12-07T06:17:24;37.38;;;5.50;;
58460;SDS011;45558;37.752;-97.822;2023-12-07T06:19:50;41.78;;;5.07;;
58460;SDS011;45558;37.752;-97.822;2023-12-07T06:22:15;40.90;;;5.18;;
58460;SDS011;45558;37.752;-97.822;2023-12-07T06:24:41;43.20;;;5.65;;
58460;SDS011;45558;37.752;-97.822;2023-12-07T06:27:07;27.70;;;3.38;;
58460;SDS011;45558;37.752;-97.822;2023-12-07T06:29:33;41.25;;;4.65;;
58460;SDS011;45558;37.752;-97.822;2023-12-07T06:31:58;36.38;;;4.68;;
58460;SDS011;45558;37.752;-97.822;2023-12-07T06:34:25;31.50;;;4.63;;
58460;SDS011;45558;37.752;-97.822;2023-12-07T06:36:53;38.83;;;8.75;;
58460;SDS011;45558;37.752;-97.822;2023-12-07T06:39:18;25.08;;;4.10;;
58460;SDS011;45558;37.752;-97.822;2023-12-07T06:41:44;26.70;;;3.58;;
58460;SDS011;45558;37.752;-97.822;2023-12-07T06:44:09;28.38;;;4.93;;
58460;SDS011;45558;37.752;-97.822;2023-12-07T06:46:35;23.05;;;4.60;;
58460;SDS011;45558;37.752;-97.822;2023-12-07T06:49:01;26.75;;;4.20;;
58460;SDS011;45558;37.752;-97.822;2023-12-07T06:51:27;23.60;;;5.03;;
58460;SDS011;45558;37.752;-97.822;2023-12-07T06:53:53;25.67;;;3.95;;
58460;SDS011;45558;37.752;-97.822;2023-12-07T06:56:18;33.70;;;6.13;;
58460;SDS011;45558;37.752;-97.822;2023-12-07T06:58:44;25.60;;;3.58;;
58460;SDS011;45558;37.752;-97.822;2023-12-07T07:01:10;34.45;;;6.70;;
58460;SDS011;45558;37.752;-97.822;2023-12-07T07:03:35;22.63;;;4.03;;
58460;SDS011;45558;37.752;-97.822;2023-12-07T07:06:01;30.40;;;5.85;;
58460;SDS011;45558;37.752;-97.822;2023-12-07T07:08:27;27.80;;;4.65;;
58460;SDS011;45558;37.752;-97.822;2023-12-07T07:10:52;37.45;;;7.13;;
58460;SDS011;45558;37.752;-97.822;2023-12-07T07:13:18;35.03;;;7.47;;
58460;SDS011;45558;37.752;-97.822;2023-12-07T07:15:45;26.17;;;4.03;;
58460;SDS011;45558;37.752;-97.822;2023-12-07T07:18:12;24.90;;;3.20;;
58460;SDS011;45558;37.752;-97.822;2023-12-07T07:20:39;31.17;;;3.47;;
58460;SDS011;45558;37.752;-97.822;2023-12-07T07:23:04;39.03;;;6.00;;
58460;SDS011;45558;37.752;-97.822;2023-12-07T07:25:31;24.63;;;2.65;;
58460;SDS011;45558;37.752;-97.822;2023-12-07T07:27:56;27.40;;;3.38;;
58460;SDS011;45558;37.752;-97.822;2023-12-07T07:30:22;31.77;;;5.72;;
58460;SDS011;45558;37.752;-97.822;2023-12-07T07:32:47;33.75;;;5.07;;
58460;SDS011;45558;37.752;-97.822;2023-12-07T07:35:14;31.05;;;5.22;;
58460;SDS011;45558;37.752;-97.822;2023-12-07T07:37:40;30.20;;;4.68;;
58460;SDS011;45558;37.752;-97.822;2023-12-07T07:40:07;29.05;;;4.10;;
58460;SDS011;45558;37.752;-97.822;2023-12-07T07:42:39;39.77;;;6.13;;
58460;SDS011;45558;37.752;-97.822;2023-12-07T07:45:09;38.42;;;6.15;;
58460;SDS011;45558;37.752;-97.822;2023-12-07T07:47:35;44.97;;;6.68;;
58460;SDS011;45558;37.752;-97.822;2023-12-07T07:50:01;34.25;;;6.78;;
58460;SDS011;45558;37.752;-97.822;2023-12-07T07:52:31;42.45;;;6.63;;
58460;SDS011;45558;37.752;-97.822;2023-12-07T07:55:01;23.27;;;3.78;;
58460;SDS011;45558;37.752;-97.822;2023-12-07T07:57:28;39.85;;;4.68;;
58460;SDS011;45558;37.752;-97.822;2023-12-07T07:59:55;33.58;;;5.57;;
58460;SDS011;45558;37.752;-97.822;2023-12-07T08:02:22;37.92;;;3.55;;
58460;SDS011;45558;37.752;-97.822;2023-12-07T08:04:48;35.17;;;3.28;;
58460;SDS011;45558;37.752;-97.822;2023-12-07T08:07:14;27.88;;;3.60;;
58460;SDS011;45558;37.752;-97.822;2023-12-07T08:09:40;33.40;;;3.38;;
58460;SDS011;45558;37.752;-97.822;2023-12-07T08:12:06;28.80;;;3.70;;
58460;SDS011;45558;37.752;-97.822;2023-12-07T08:14:36;35.45;;;3.45;;
58460;SDS011;45558;37.752;-97.822;2023-12-07T08:17:03;33.30;;;3.67;;
58460;SDS011;45558;37.752;-97.822;2023-12-07T08:19:29;38.10;;;4.13;;
58460;SDS011;45558;37.752;-97.822;2023-12-07T08:21:55;31.80;;;4.18;;
58460;SDS011;45558;37.752;-97.822;2023-12-07T08:24:21;26.85;;;4.60;;
58460;SDS011;45558;37.752;-97.822;2023-12-07T08:26:46;29.60;;;4.55;;
58460;SDS011;45558;37.752;-97.822;2023-12-07T08:29:12;29.10;;;3.33;;
58460;SDS011;45558;37.752;-97.822;2023-12-07T08:31:39;23.70;;;2.88;;
58460;SDS011;45558;37.752;-97.822;2023-12-07T08:34:05;25.60;;;3.53;;
58460;SDS011;45558;37.752;-97.822;2023-12-07T08:36:31;24.15;;;4.25;;
58460;SDS011;45558;37.752;-97.822;2023-12-07T08:38:57;23.98;;;4.63;;
58460;SDS011;45558;37.752;-97.822;2023-12-07T08:41:23;29.77;;;3.58;;
58460;SDS011;45558;37.752;-97.822;2023-12-07T08:43:50;34.05;;;7.57;;
58460;SDS011;45558;37.752;-97.822;2023-12-07T08:46:15;23.38;;;2.63;;
58460;SDS011;45558;37.752;-97.822;2023-12-07T08:48:41;23.25;;;3.78;;
58460;SDS011;45558;37.752;-97.822;2023-12-07T08:51:08;23.63;;;3.45;;
58460;SDS011;45558;37.752;-97.822;2023-12-07T08:53:34;31.95;;;4.20;;
58460;SDS011;45558;37.752;-97.822;2023-12-07T08:56:01;31.17;;;5.28;;
58460;SDS011;45558;37.752;-97.822;2023-12-07T08:58:27;25.58;;;3.60;;
58460;SDS011;45558;37.752;-97.822;2023-12-07T09:00:53;21.33;;;2.88;;
58460;SDS011;45558;37.752;-97.822;2023-12-07T09:03:18;23.63;;;3.65;;
58460;SDS011;45558;37.752;-97.822;2023-12-07T09:05:44;18.52;;;2.78;;
58460;SDS011;45558;37.752;-97.822;2023-12-07T09:08:10;22.08;;;3.72;;
58460;SDS011;45558;37.752;-97.822;2023-12-07T09:10:36;21.52;;;3.42;;
58460;SDS011;45558;37.752;-97.822;2023-12-07T09:13:01;16.05;;;3.03;;
58460;SDS011;45558;37.752;-97.822;2023-12-07T09:15:28;14.05;;;3.38;;
58460;SDS011;45558;37.752;-97.822;2023-12-07T09:17:54;13.65;;;3.20;;
58460;SDS011;45558;37.752;-97.822;2023-12-07T09:20:20;11.60;;;2.60;;
58460;SDS011;45558;37.752;-97.822;2023-12-07T09:22:46;19.63;;;2.58;;
58460;SDS011;45558;37.752;-97.822;2023-12-07T09:25:13;12.55;;;2.72;;
58460;SDS011;45558;37.752;-97.822;2023-12-07T09:27:40;17.40;;;4.53;;
58460;SDS011;45558;37.752;-97.822;2023-12-07T09:30:09;12.05;;;3.45;;
58460;SDS011;45558;37.752;-97.822;2023-12-07T09:32:37;10.68;;;3.33;;
58460;SDS011;45558;37.752;-97.822;2023-12-07T09:35:04;20.70;;;7.25;;
58460;SDS011;45558;37.752;-97.822;2023-12-07T09:37:32;16.35;;;5.30;;
58460;SDS011;45558;37.752;-97.822;2023-12-07T09:40:01;5.95;;;3.40;;
58460;SDS011;45558;37.752;-97.822;2023-12-07T09:42:29;6.80;;;3.30;;
58460;SDS011;45558;37.752;-97.822;2023-12-07T09:44:54;9.45;;;3.47;;
58460;SDS011;45558;37.752;-97.822;2023-12-07T09:47:20;6.30;;;2.58;;
58460;SDS011;45558;37.752;-97.822;2023-12-07T09:49:46;9.68;;;5.05;;
58460;SDS011;45558;37.752;-97.822;2023-12-07T09:52:11;5.57;;;3.22;;
58460;SDS011;45558;37.752;-97.822;2023-12-07T09:54:42;8.52;;;2.60;;
58460;SDS011;45558;37.752;-97.822;2023-12-07T09:57:07;7.45;;;2.10;;
58460;SDS011;45558;37.752;-97.822;2023-12-07T09:59:36;4.25;;;1.58;;
58460;SDS011;45558;37.752;-97.822;2023-12-07T10:02:02;4.75;;;2.20;;
58460;SDS011;45558;37.752;-97.822;2023-12-07T10:04:27;7.10;;;3.28;;
58460;SDS011;45558;37.752;-97.822;2023-12-07T10:06:53;2.90;;;1.73;;
58460;SDS011;45558;37.752;-97.822;2023-12-07T10:09:22;2.33;;;1.52;;
58460;SDS011;45558;37.752;-97.822;2023-12-07T10:11:49;17.15;;;9.75;;
58460;SDS011;45558;37.752;-97.822;2023-12-07T10:14:15;18.23;;;9.90;;
58460;SDS011;45558;37.752;-97.822;2023-12-07T10:16:59;23.92;;;13.48;;
58460;SDS011;45558;37.752;-97.822;2023-12-07T10:19:25;13.18;;;4.15;;
58460;SDS011;45558;37.752;-97.822;2023-12-07T10:21:52;10.02;;;5.70;;
58460;SDS011;45558;37.752;-97.822;2023-12-07T10:24:20;3.17;;;2.15;;
58460;SDS011;45558;37.752;-97.822;2023-12-07T10:26:47;7.32;;;2.72;;
58460;SDS011;45558;37.752;-97.822;2023-12-07T10:29:14;22.33;;;8.68;;
58460;SDS011;45558;37.752;-97.822;2023-12-07T10:31:43;11.43;;;2.83;;
58460;SDS011;45558;37.752;-97.822;2023-12-07T10:34:09;54.10;;;15.30;;
58460;SDS011;45558;37.752;-97.822;2023-12-07T10:36:38;38.80;;;15.52;;
58460;SDS011;45558;37.752;-97.822;2023-12-07T10:39:03;40.97;;;14.93;;
58460;SDS011;45558;37.752;-97.822;2023-12-07T10:41:33;27.33;;;12.30;;
58460;SDS011;45558;37.752;-97.822;2023-12-07T10:44:01;31.00;;;11.55;;
58460;SDS011;45558;37.752;-97.822;2023-12-07T10:46:27;32.55;;;13.15;;
58460;SDS011;45558;37.752;-97.822;2023-12-07T10:49:00;32.78;;;11.68;;
58460;SDS011;45558;37.752;-97.822;2023-12-07T10:51:31;18.10;;;6.38;;
58460;SDS011;45558;37.752;-97.822;2023-12-07T10:54:02;15.75;;;5.10;;
58460;SDS011;45558;37.752;-97.822;2023-12-07T10:56:29;14.25;;;4.45;;
58460;SDS011;45558;37.752;-97.822;2023-12-07T10:59:05;23.27;;;9.38;;
58460;SDS011;45558;37.752;-97.822;2023-12-07T11:01:31;5.47;;;2.05;;
58460;SDS011;45558;37.752;-97.822;2023-12-07T11:03:58;15.73;;;7.07;;
58460;SDS011;45558;37.752;-97.822;2023-12-07T11:09:47;6.82;;;2.70;;
58460;SDS011;45558;37.752;-97.822;2023-12-07T11:12:25;9.20;;;4.25;;
58460;SDS011;45558;37.752;-97.822;2023-12-07T11:14:59;6.43;;;0.70;;
58460;SDS011;45558;37.752;-97.822;2023-12-07T11:17:26;2.20;;;0.30;;
58460;SDS011;45558;37.752;-97.822;2023-12-07T11:19:52;4.13;;;1.88;;
58460;SDS011;45558;37.752;-97.822;2023-12-07T11:22:18;4.30;;;0.75;;
58460;SDS011;45558;37.752;-97.822;2023-12-07T11:24:57;3.63;;;1.90;;
58460;SDS011;45558;37.752;-97.822;2023-12-07T11:27:28;2.55;;;1.10;;
58460;SDS011;45558;37.752;-97.822;2023-12-07T11:29:57;3.33;;;1.42;;
58460;SDS011;45558;37.752;-97.822;2023-12-07T11:32:26;3.80;;;1.27;;
58460;SDS011;45558;37.752;-97.822;2023-12-07T11:34:52;6.25;;;2.92;;
58460;SDS011;45558;37.752;-97.822;2023-12-07T11:37:19;2.97;;;0.60;;
58460;SDS011;45558;37.752;-97.822;2023-12-07T11:39:45;7.65;;;3.80;;
58460;SDS011;45558;37.752;-97.822;2023-12-07T11:42:17;6.95;;;1.38;;
58460;SDS011;45558;37.752;-97.822;2023-12-07T11:44:48;4.28;;;2.05;;
58460;SDS011;45558;37.752;-97.822;2023-12-07T11:47:15;19.80;;;7.35;;
58460;SDS011;45558;37.752;-97.822;2023-12-07T11:49:43;34.58;;;18.40;;
58460;SDS011;45558;37.752;-97.822;2023-12-07T11:52:13;17.10;;;9.02;;
58460;SDS011;45558;37.752;-97.822;2023-12-07T11:54:44;16.50;;;9.40;;
58460;SDS011;45558;37.752;-97.822;2023-12-07T11:57:14;7.90;;;3.00;;
58460;SDS011;45558;37.752;-97.822;2023-12-07T11:59:41;4.28;;;1.38;;
58460;SDS011;45558;37.752;-97.822;2023-12-07T12:02:10;17.48;;;8.20;;
58460;SDS011;45558;37.752;-97.822;2023-12-07T12:04:42;14.95;;;4.28;;
58460;SDS011;45558;37.752;-97.822;2023-12-07T12:07:08;14.10;;;4.28;;
58460;SDS011;45558;37.752;-97.822;2023-12-07T12:09:33;8.20;;;3.80;;
58460;SDS011;45558;37.752;-97.822;2023-12-07T12:11:59;10.23;;;1.00;;
58460;SDS011;45558;37.752;-97.822;2023-12-07T12:14:25;12.30;;;1.25;;
58460;SDS011;45558;37.752;-97.822;2023-12-07T12:16:52;14.25;;;1.73;;
58460;SDS011;45558;37.752;-97.822;2023-12-07T12:19:18;15.88;;;2.20;;
58460;SDS011;45558;37.752;-97.822;2023-12-07T12:21:45;13.70;;;1.83;;
58460;SDS011;45558;37.752;-97.822;2023-12-07T12:24:11;18.02;;;4.18;;
58460;SDS011;45558;37.752;-97.822;2023-12-07T12:26:39;17.40;;;2.70;;
58460;SDS011;45558;37.752;-97.822;2023-12-07T12:29:07;13.18;;;2.17;;
58460;SDS011;45558;37.752;-97.822;2023-12-07T12:31:37;18.08;;;3.47;;
58460;SDS011;45558;37.752;-97.822;2023-12-07T12:34:06;20.08;;;5.13;;
58460;SDS011;45558;37.752;-97.822;2023-12-07T12:36:37;20.77;;;1.92;;
58460;SDS011;45558;37.752;-97.822;2023-12-07T12:39:03;17.38;;;2.95;;
58460;SDS011;45558;37.752;-97.822;2023-12-07T12:41:33;16.17;;;2.42;;
58460;SDS011;45558;37.752;-97.822;2023-12-07T12:43:59;15.25;;;1.70;;
58460;SDS011;45558;37.752;-97.822;2023-12-07T12:46:25;9.07;;;1.65;;
58460;SDS011;45558;37.752;-97.822;2023-12-07T12:48:57;21.55;;;2.70;;
58460;SDS011;45558;37.752;-97.822;2023-12-07T12:51:25;18.33;;;2.33;;
58460;SDS011;45558;37.752;-97.822;2023-12-07T12:53:52;17.15;;;2.72;;
58460;SDS011;45558;37.752;-97.822;2023-12-07T12:56:19;17.50;;;2.75;;
58460;SDS011;45558;37.752;-97.822;2023-12-07T12:58:47;23.20;;;2.75;;
58460;SDS011;45558;37.752;-97.822;2023-12-07T13:01:16;19.70;;;2.77;;
58460;SDS011;45558;37.752;-97.822;2023-12-07T13:03:43;20.55;;;4.32;;
58460;SDS011;45558;37.752;-97.822;2023-12-07T13:06:13;26.55;;;2.85;;
58460;SDS011;45558;37.752;-97.822;2023-12-07T13:08:49;36.20;;;6.15;;
58460;SDS011;45558;37.752;-97.822;2023-12-07T13:11:15;23.02;;;3.72;;
58460;SDS011;45558;37.752;-97.822;2023-12-07T13:13:43;28.27;;;4.70;;
58460;SDS011;45558;37.752;-97.822;2023-12-07T13:16:09;18.60;;;2.28;;
58460;SDS011;45558;37.752;-97.822;2023-12-07T13:18:37;34.53;;;3.60;;
58460;SDS011;45558;37.752;-97.822;2023-12-07T13:21:03;29.75;;;4.82;;
58460;SDS011;45558;37.752;-97.822;2023-12-07T13:23:30;30.92;;;3.42;;
58460;SDS011;45558;37.752;-97.822;2023-12-07T13:25:56;31.08;;;3.88;;
58460;SDS011;45558;37.752;-97.822;2023-12-07T13:28:22;19.83;;;4.05;;
58460;SDS011;45558;37.752;-97.822;2023-12-07T13:30:49;69.30;;;32.10;;
58460;SDS011;45558;37.752;-97.822;2023-12-07T13:33:15;36.70;;;8.45;;
58460;SDS011;45558;37.752;-97.822;2023-12-07T13:35:41;35.95;;;11.18;;
58460;SDS011;45558;37.752;-97.822;2023-12-07T13:38:07;41.70;;;17.10;;
58460;SDS011;45558;37.752;-97.822;2023-12-07T13:40:33;26.45;;;7.38;;
58460;SDS011;45558;37.752;-97.822;2023-12-07T13:43:02;32.78;;;7.68;;
58460;SDS011;45558;37.752;-97.822;2023-12-07T13:45:28;36.25;;;10.68;;
58460;SDS011;45558;37.752;-97.822;2023-12-07T13:47:54;40.90;;;16.85;;
58460;SDS011;45558;37.752;-97.822;2023-12-07T13:50:19;35.67;;;7.97;;
58460;SDS011;45558;37.752;-97.822;2023-12-07T13:52:45;39.67;;;13.27;;
58460;SDS011;45558;37.752;-97.822;2023-12-07T13:55:10;36.85;;;11.00;;
58460;SDS011;45558;37.752;-97.822;2023-12-07T13:57:36;29.30;;;6.85;;
58460;SDS011;45558;37.752;-97.822;2023-12-07T14:00:02;39.17;;;8.68;;
58460;SDS011;45558;37.752;-97.822;2023-12-07T14:02:28;36.20;;;10.75;;
58460;SDS011;45558;37.752;-97.822;2023-12-07T14:04:54;36.03;;;8.10;;
58460;SDS011;45558;37.752;-97.822;2023-12-07T14:07:20;34.17;;;6.10;;
58460;SDS011;45558;37.752;-97.822;2023-12-07T14:09:49;40.63;;;10.50;;
58460;SDS011;45558;37.752;-97.822;2023-12-07T14:12:16;42.13;;;11.57;;
58460;SDS011;45558;37.752;-97.822;2023-12-07T14:14:43;33.80;;;4.82;;
58460;SDS011;45558;37.752;-97.822;2023-12-07T14:17:13;31.25;;;7.00;;